createdAt,value
2023-01-30T00:02:31.860Z,99175.44
2023-01-30T00:06:34.071Z,99172.19
2023-01-30T00:10:36.424Z,99157.50
2023-01-30T00:14:38.406Z,99158.44
2023-01-30T00:18:41.560Z,99157.16
2023-01-30T00:22:52.447Z,99152.97
2023-01-30T00:27:01.318Z,99164.56
2023-01-30T00:31:04.543Z,99152.50
2023-01-30T00:35:08.274Z,99156.25
2023-01-30T00:39:10.359Z,99153.66
2023-01-30T00:43:31.546Z,99147.97
2023-01-30T00:47:33.535Z,99144.22
2023-01-30T00:51:35.511Z,99150.25
2023-01-30T00:55:38.056Z,99142.41
2023-01-30T00:59:40.321Z,99140.28
2023-01-30T01:03:42.632Z,99141.31
2023-01-30T01:07:44.610Z,99143.69
2023-01-30T01:11:46.807Z,99141.91
2023-01-30T01:15:49.838Z,99138.00
2023-01-30T01:19:51.872Z,99129.88
2023-01-30T01:23:58.484Z,99128.44
2023-01-30T01:28:00.449Z,99122.19
2023-01-30T01:32:02.600Z,99132.84
2023-01-30T01:36:05.163Z,99131.19
2023-01-30T01:40:26.201Z,99138.06
2023-01-30T01:44:28.288Z,99129.75
2023-01-30T01:48:36.080Z,99119.47
2023-01-30T01:52:40.439Z,99117.50
2023-01-30T01:56:43.992Z,99114.41
2023-01-30T02:00:46.853Z,99114.25
2023-01-30T02:05:02.391Z,99106.41
2023-01-30T02:09:07.900Z,99100.56
2023-01-30T02:13:10.027Z,99107.69
2023-01-30T02:17:12.020Z,99107.41
2023-01-30T02:21:14.243Z,99102.47
2023-01-30T02:25:34.889Z,99095.19
2023-01-30T02:29:55.572Z,99099.59
2023-01-30T02:34:06.567Z,99096.69
2023-01-30T02:38:27.456Z,99102.72
2023-01-30T02:42:41.859Z,99087.53
2023-01-30T02:46:53.216Z,99082.19
2023-01-30T02:51:03.570Z,99089.16
2023-01-30T02:55:25.635Z,99086.94
2023-01-30T02:59:42.008Z,99090.53
2023-01-30T03:03:47.720Z,99080.75
2023-01-30T03:08:11.535Z,99084.00
2023-01-30T03:12:22.455Z,99080.06
2023-01-30T03:16:27.837Z,99083.19
2023-01-30T03:20:30.795Z,99086.44
2023-01-30T03:24:32.823Z,99080.75
2023-01-30T03:28:35.215Z,99077.16
2023-01-30T03:32:37.241Z,99076.97
2023-01-30T03:36:39.706Z,99074.19
2023-01-30T03:40:41.938Z,99059.22
2023-01-30T03:44:44.725Z,99059.22
2023-01-30T03:48:46.666Z,99057.59
2023-01-30T03:52:49.068Z,99059.38
2023-01-30T03:56:54.579Z,99049.75
2023-01-30T04:00:57.575Z,99044.56
2023-01-30T04:05:00.889Z,99055.16
2023-01-30T04:09:03.884Z,99050.75
2023-01-30T04:13:14.818Z,99063.19
2023-01-30T04:17:17.212Z,99060.22
2023-01-30T04:21:37.967Z,99048.00
2023-01-30T04:25:40.008Z,99045.25
2023-01-30T04:29:44.563Z,99047.34
2023-01-30T04:33:47.088Z,99035.16
2023-01-30T04:37:49.050Z,99034.69
2023-01-30T04:41:54.693Z,99034.19
2023-01-30T04:45:57.284Z,99035.66
2023-01-30T04:49:59.730Z,99032.41
2023-01-30T04:54:02.119Z,99043.81
2023-01-30T04:58:05.670Z,99028.50
2023-01-30T05:02:07.939Z,99033.22
2023-01-30T05:06:09.930Z,99037.78
2023-01-30T05:10:11.996Z,99038.44
2023-01-30T05:14:14.088Z,99032.41
2023-01-30T05:18:16.109Z,99028.34
2023-01-30T05:22:18.120Z,99022.81
2023-01-30T05:26:20.173Z,99030.28
2023-01-30T05:30:22.270Z,99038.13
2023-01-30T05:34:24.300Z,99042.00
2023-01-30T05:38:26.461Z,99060.06
2023-01-30T05:42:28.531Z,99050.81
2023-01-30T05:46:30.714Z,99052.91
2023-01-30T05:50:32.926Z,99057.94
2023-01-30T05:54:35.423Z,99043.78
2023-01-30T05:58:38.187Z,99037.47
2023-01-30T06:02:40.211Z,99041.69
2023-01-30T06:06:42.320Z,99041.31
2023-01-30T06:10:44.476Z,99039.06
2023-01-30T06:19:25.229Z,99038.09
2023-01-30T06:23:27.512Z,99040.69
2023-01-30T06:27:29.463Z,99043.28
2023-01-30T06:31:31.515Z,99048.31
2023-01-30T06:35:33.801Z,99046.22
2023-01-30T06:39:35.704Z,99044.94
2023-01-30T06:43:37.682Z,99047.19
2023-01-30T06:47:50.232Z,99046.38
2023-01-30T06:51:52.313Z,99044.28
2023-01-30T06:55:54.407Z,99042.41
2023-01-30T06:59:56.468Z,99043.69
2023-01-30T07:03:58.573Z,99047.94
2023-01-30T07:08:00.656Z,99063.03
2023-01-30T07:12:02.664Z,99069.56
2023-01-30T07:16:04.706Z,99062.75
2023-01-30T07:20:07.398Z,99064.09
2023-01-30T07:24:09.366Z,99057.13
2023-01-30T07:28:11.276Z,99064.81
2023-01-30T07:32:19.225Z,99076.84
2023-01-30T07:36:21.652Z,99087.28
2023-01-30T07:40:24.156Z,99084.34
2023-01-30T07:44:26.060Z,99092.78
2023-01-30T07:48:28.009Z,99101.72
2023-01-30T07:52:30.247Z,99112.28
2023-01-30T07:56:32.310Z,99119.91
2023-01-30T08:00:35.397Z,99117.56
2023-01-30T08:04:37.371Z,99115.41
2023-01-30T08:08:39.890Z,99118.28
2023-01-30T08:12:42.083Z,99112.53
2023-01-30T08:16:44.187Z,99106.03
2023-01-30T08:20:46.329Z,99102.22
2023-01-30T08:24:48.271Z,99108.78
2023-01-30T08:28:50.461Z,99101.66
2023-01-30T08:32:52.579Z,99104.31
2023-01-30T08:36:54.579Z,99096.16
2023-01-30T08:40:58.049Z,99093.91
2023-01-30T08:45:00.055Z,99080.66
2023-01-30T08:49:02.034Z,99082.63
2023-01-30T08:53:09.264Z,99085.25
2023-01-30T08:57:11.665Z,99093.72
2023-01-30T09:01:13.812Z,99087.13
2023-01-30T09:05:15.968Z,99077.25
2023-01-30T09:09:18.187Z,99084.25
2023-01-30T09:13:20.093Z,99083.44
2023-01-30T09:17:22.254Z,99081.56
2023-01-30T09:21:24.608Z,99072.44
2023-01-30T09:25:26.698Z,99053.75
2023-01-30T09:29:29.023Z,99058.28
2023-01-30T09:33:31.410Z,99063.38
2023-01-30T09:37:33.413Z,99059.84
2023-01-30T09:41:35.619Z,99051.28
2023-01-30T09:45:46.916Z,99054.97
2023-01-30T09:50:06.309Z,99042.75
2023-01-30T09:54:24.452Z,99028.22
2023-01-30T09:58:32.642Z,99031.94
2023-01-30T10:02:44.053Z,99039.63
2023-01-30T10:06:51.692Z,99042.91
2023-01-30T10:11:09.673Z,99031.19
2023-01-30T10:15:15.028Z,99031.59
2023-01-30T10:19:33.556Z,99021.22
2023-01-30T10:24:13.439Z,99023.81
2023-01-30T10:28:22.576Z,99008.53
2023-01-30T10:32:31.874Z,99016.59
2023-01-30T10:36:34.220Z,99002.69
2023-01-30T10:40:40.091Z,98997.53
2023-01-30T10:44:44.868Z,98979.78
2023-01-30T10:49:06.420Z,98949.59
2023-01-30T10:53:08.388Z,98934.56
2023-01-30T10:57:33.918Z,98928.34
2023-01-30T11:01:48.383Z,98923.75
2023-01-30T11:05:51.637Z,98917.06
2023-01-30T11:09:53.620Z,98899.13
2023-01-30T11:14:05.036Z,98885.41
2023-01-30T11:19:06.635Z,98884.34
2023-01-30T11:22:31.322Z,98867.16
2023-01-30T11:26:46.843Z,98850.19
2023-01-30T11:31:01.561Z,98855.59
2023-01-30T11:35:06.813Z,98854.84
2023-01-30T11:39:18.830Z,98857.34
2023-01-30T11:43:24.832Z,98831.19
2023-01-30T11:47:28.274Z,98815.22
2023-01-30T11:51:34.574Z,98796.88
2023-01-30T11:55:37.731Z,98777.53
2023-01-30T11:59:54.580Z,98778.28
2023-01-30T12:03:57.511Z,98777.38
2023-01-30T12:08:12.497Z,98777.25
2023-01-30T12:12:33.309Z,98797.97
2023-01-30T12:16:46.878Z,98792.66
2023-01-30T12:20:59.069Z,98784.25
2023-01-30T12:25:03.649Z,98777.59
2023-01-30T12:29:21.121Z,98784.72
2023-01-30T12:33:26.824Z,98769.88
2023-01-30T12:37:41.084Z,98764.84
2023-01-30T12:42:01.895Z,98759.41
2023-01-30T12:46:23.171Z,98748.16
2023-01-30T12:50:28.275Z,98751.19
2023-01-30T12:54:30.729Z,98737.59
2023-01-30T12:58:45.998Z,98711.25
2023-01-30T13:02:51.264Z,98703.75
2023-01-30T13:06:56.206Z,98715.63
2023-01-30T13:11:06.092Z,98718.66
2023-01-30T13:15:08.610Z,98703.50
2023-01-30T13:19:21.008Z,98713.72
2023-01-30T13:23:50.127Z,98709.81
2023-01-30T13:28:14.417Z,98701.75
2023-01-30T13:32:25.575Z,98697.50
2023-01-30T13:36:28.967Z,98707.63
2023-01-30T13:40:36.132Z,98705.91
2023-01-30T13:44:42.401Z,98697.91
2023-01-30T13:48:50.595Z,98712.03
2023-01-30T13:53:13.749Z,98714.34
2023-01-30T13:57:22.035Z,98711.03
2023-01-30T14:01:27.914Z,98694.63
2023-01-30T14:05:48.923Z,98689.28
2023-01-30T14:09:51.029Z,98687.94
2023-01-30T14:13:53.915Z,98673.31
2023-01-30T14:18:06.052Z,98645.28
2023-01-30T14:22:19.515Z,98646.16
2023-01-30T14:26:40.227Z,98633.75
2023-01-30T14:30:50.137Z,98661.09
2023-01-30T14:35:04.273Z,98662.19
2023-01-30T14:39:25.034Z,98661.06
2023-01-30T14:43:33.231Z,98666.38
2023-01-30T14:47:43.410Z,98636.09
2023-01-30T14:51:49.756Z,98634.75
2023-01-30T14:55:59.773Z,98634.13
2023-01-30T15:00:17.150Z,98631.97
2023-01-30T15:04:20.881Z,98636.66
2023-01-30T15:08:24.729Z,98627.28
2023-01-30T15:12:36.292Z,98626.56
2023-01-30T15:16:41.354Z,98645.34
2023-01-30T15:21:01.938Z,98661.97
2023-01-30T15:25:25.121Z,98665.38
2023-01-30T15:29:30.448Z,98666.59
2023-01-30T15:33:32.817Z,98656.13
2023-01-30T15:37:37.275Z,98656.88
2023-01-30T15:41:42.829Z,98675.38
2023-01-30T15:45:57.791Z,98674.28
2023-01-30T15:50:01.926Z,98677.31
2023-01-30T15:54:09.198Z,98676.16
2023-01-30T15:58:13.889Z,98664.44
2023-01-30T16:02:23.709Z,98662.03
2023-01-30T16:06:35.961Z,98658.13
2023-01-30T16:10:44.051Z,98652.56
2023-01-30T16:14:46.073Z,98655.81
2023-01-30T16:18:51.522Z,98659.13
2023-01-30T16:22:53.713Z,98663.22
2023-01-30T16:27:00.741Z,98656.38
2023-01-30T16:31:05.030Z,98651.63
2023-01-30T16:35:27.491Z,98662.63
2023-01-30T16:39:30.697Z,98655.94
2023-01-30T16:43:33.617Z,98655.75
2023-01-30T16:47:37.623Z,98652.31
2023-01-30T16:51:40.009Z,98666.03
2023-01-30T16:55:54.430Z,98657.78
2023-01-30T16:59:56.511Z,98640.97
2023-01-30T17:04:02.689Z,98649.41
2023-01-30T17:08:04.879Z,98663.94
2023-01-30T17:12:30.395Z,98659.91
2023-01-30T17:16:34.493Z,98654.75
2023-01-30T17:20:39.104Z,98646.50
2023-01-30T17:24:41.597Z,98641.09
2023-01-30T17:28:44.011Z,98640.41
2023-01-30T17:32:46.363Z,98644.91
2023-01-30T17:36:49.412Z,98642.38
2023-01-30T17:40:51.582Z,98643.03
2023-01-30T17:44:54.158Z,98624.97
2023-01-30T17:48:56.579Z,98633.38
2023-01-30T17:52:58.860Z,98634.50
2023-01-30T17:57:02.447Z,98634.50
2023-01-30T18:01:04.557Z,98625.44
2023-01-30T18:05:08.873Z,98631.34
2023-01-30T18:09:15.523Z,98623.06
2023-01-30T18:13:17.595Z,98633.22
2023-01-30T18:17:19.895Z,98628.19
2023-01-30T18:21:22.440Z,98637.00
2023-01-30T18:25:24.446Z,98626.78
2023-01-30T18:29:37.235Z,98629.25
2023-01-30T18:33:48.520Z,98625.19
2023-01-30T18:37:50.695Z,98616.88
2023-01-30T18:41:52.680Z,98619.22
2023-01-30T18:46:01.597Z,98620.59
2023-01-30T18:50:04.619Z,98620.13
2023-01-30T18:54:06.794Z,98629.44
2023-01-30T18:58:08.875Z,98637.16
2023-01-30T19:02:13.234Z,98648.06
2023-01-30T19:06:17.810Z,98646.44
2023-01-30T19:10:20.550Z,98639.84
2023-01-30T19:14:22.711Z,98641.59
2023-01-30T19:18:26.332Z,98647.94
2023-01-30T19:22:28.494Z,98641.59
2023-01-30T19:26:30.863Z,98639.34
2023-01-30T19:30:33.046Z,98640.28
2023-01-30T19:34:37.013Z,98639.41
2023-01-30T19:38:39.391Z,98650.66
2023-01-30T19:42:44.453Z,98654.03
2023-01-30T19:46:46.862Z,98653.47
2023-01-30T19:50:51.192Z,98667.97
2023-01-30T19:54:54.165Z,98670.19
2023-01-30T19:58:58.723Z,98662.25
2023-01-30T20:03:01.020Z,98667.53
2023-01-30T20:07:03.286Z,98660.41
2023-01-30T20:11:06.820Z,98660.56
2023-01-30T20:15:10.252Z,98660.66
2023-01-30T20:19:16.711Z,98666.53
2023-01-30T20:23:18.823Z,98666.78
2023-01-30T20:27:21.855Z,98663.56
2023-01-30T20:31:26.141Z,98668.50
2023-01-30T20:35:28.804Z,98665.75
2023-01-30T20:39:30.888Z,98675.66
2023-01-30T20:43:34.210Z,98676.53
2023-01-30T20:47:36.369Z,98674.34
2023-01-30T20:51:38.575Z,98671.91
2023-01-30T20:55:41.037Z,98678.44
2023-01-30T20:59:45.270Z,98665.41
2023-01-30T21:03:50.984Z,98658.72
2023-01-30T21:07:53.155Z,98659.84
2023-01-30T21:11:56.774Z,98665.16
2023-01-30T21:16:18.637Z,98671.13
2023-01-30T21:20:20.780Z,98671.31
2023-01-30T21:24:41.428Z,98677.28
2023-01-30T21:29:02.025Z,98676.25
2023-01-30T21:33:22.299Z,98675.44
2023-01-30T21:38:01.418Z,98678.03
2023-01-30T21:42:41.290Z,98670.06
2023-01-30T21:47:01.604Z,98672.47
2023-01-30T21:51:22.942Z,98678.03
2023-01-30T21:55:50.257Z,98671.84
2023-01-30T22:00:11.249Z,98666.56
2023-01-30T22:04:34.379Z,98667.38
2023-01-30T22:08:55.516Z,98674.66
2023-01-30T22:13:16.007Z,98692.38
2023-01-30T22:17:36.538Z,98687.53
2023-01-30T22:21:57.155Z,98700.19
2023-01-30T22:26:18.760Z,98695.94
2023-01-30T22:30:39.939Z,98693.03
2023-01-30T22:35:00.946Z,98703.38
2023-01-30T22:39:21.480Z,98705.25
2023-01-30T22:43:46.415Z,98714.25
2023-01-30T22:48:07.246Z,98712.66
2023-01-30T22:52:27.664Z,98720.50
2023-01-30T22:56:48.985Z,98721.78
2023-01-30T23:01:19.109Z,98709.66
2023-01-30T23:05:39.595Z,98726.50
2023-01-30T23:10:00.362Z,98713.88
2023-01-30T23:14:20.779Z,98701.41
2023-01-30T23:18:56.461Z,98718.34
2023-01-30T23:23:17.139Z,98706.63
2023-01-30T23:27:37.822Z,98704.97
2023-01-30T23:31:59.013Z,98700.72
2023-01-30T23:36:19.183Z,98713.34
2023-01-30T23:40:39.958Z,98697.75
2023-01-30T23:45:00.503Z,98712.94
2023-01-30T23:49:21.110Z,98711.59
2023-01-30T23:53:41.656Z,98695.38
2023-01-30T23:58:02.406Z,98710.66
